createdAt,value
2019-03-16T00:00:24.686Z,74.22
2019-03-16T00:01:24.686Z,74.12
2019-03-16T00:02:24.667Z,74.33
2019-03-16T00:03:24.654Z,74.12
2019-03-16T00:04:24.644Z,73.81
2019-03-16T00:05:24.633Z,73.85
2019-03-16T00:06:24.621Z,74.02
2019-03-16T00:07:33.017Z,74.22
2019-03-16T00:08:25.597Z,74.12
2019-03-16T00:09:24.588Z,74.43
2019-03-16T00:10:24.577Z,73.91
2019-03-16T00:11:24.566Z,73.91
2019-03-16T00:12:24.557Z,74.02
2019-03-16T00:13:24.558Z,74.12
2019-03-16T00:14:24.533Z,74.12
2019-03-16T00:15:24.524Z,73.81
2019-03-16T00:16:24.522Z,73.81
2019-03-16T00:17:24.501Z,73.91
2019-03-16T00:18:24.490Z,74.12
2019-03-16T00:19:24.496Z,74.53
2019-03-16T00:20:24.471Z,75.36
2019-03-16T00:21:24.458Z,74.95
2019-03-16T00:22:24.448Z,74.74
2019-03-16T00:23:24.436Z,75.05
2019-03-16T00:24:24.426Z,74.84
2019-03-16T00:25:24.426Z,75.05
2019-03-16T00:26:24.406Z,74.74
2019-03-16T00:27:24.394Z,74.74
2019-03-16T00:28:24.384Z,74.74
2019-03-16T00:29:24.371Z,75.05
2019-03-16T00:30:24.361Z,75.26
2019-03-16T00:31:24.360Z,75.36
2019-03-16T00:32:24.340Z,74.95
2019-03-16T00:33:24.328Z,75.36
2019-03-16T00:34:24.318Z,75.36
2019-03-16T00:35:24.307Z,75.46
2019-03-16T00:36:24.296Z,75.77
2019-03-16T00:37:24.295Z,75.46
2019-03-16T00:38:24.275Z,75.36
2019-03-16T00:39:24.264Z,75.67
2019-03-16T00:40:24.252Z,75.56
2019-03-16T00:41:24.246Z,75.67
2019-03-16T00:42:24.235Z,75.46
2019-03-16T00:43:24.235Z,75.36
2019-03-16T00:44:24.221Z,75.36
2019-03-16T00:45:24.199Z,75.15
2019-03-16T00:46:24.185Z,75.46
2019-03-16T00:47:24.184Z,75.46
2019-03-16T00:48:24.166Z,75.46
2019-03-16T00:49:24.165Z,75.46
2019-03-16T00:50:24.143Z,75.05
2019-03-16T00:51:24.131Z,75.15
2019-03-16T00:52:24.120Z,75.26
2019-03-16T00:53:24.110Z,75.36
2019-03-16T00:54:24.099Z,75.36
2019-03-16T00:55:24.100Z,75.26
2019-03-16T00:56:24.077Z,75.36
2019-03-16T00:57:24.068Z,75.46
2019-03-16T00:58:24.054Z,75.36
2019-03-16T00:59:24.043Z,75.56
2019-03-16T01:00:24.032Z,75.36
2019-03-16T01:01:24.070Z,75.67
2019-03-16T01:02:27.478Z,75.46
2019-03-16T01:03:24.010Z,75.36
2019-03-16T01:04:23.991Z,75.05
2019-03-16T01:05:23.982Z,74.95
2019-03-16T01:06:23.967Z,75.15
2019-03-16T01:07:23.970Z,75.36
2019-03-16T01:08:23.946Z,75.36
2019-03-16T01:09:23.938Z,75.36
2019-03-16T01:10:23.923Z,75.56
2019-03-16T01:11:23.913Z,74.95
2019-03-16T01:12:23.901Z,75.46
2019-03-16T01:13:23.906Z,75.77
2019-03-16T01:14:23.887Z,75.46
2019-03-16T01:15:23.870Z,75.36
2019-03-16T01:16:23.859Z,75.05
2019-03-16T01:17:23.847Z,75.46
2019-03-16T01:18:23.837Z,75.60
2019-03-16T01:19:23.847Z,75.87
2019-03-16T01:20:23.815Z,75.56
2019-03-16T01:21:23.806Z,75.36
2019-03-16T01:22:23.796Z,75.29
2019-03-16T01:23:23.783Z,74.84
2019-03-16T01:24:23.772Z,74.84
2019-03-16T01:25:23.773Z,75.15
2019-03-16T01:26:23.752Z,74.84
2019-03-16T01:27:23.740Z,75.15
2019-03-16T01:28:23.738Z,74.84
2019-03-16T01:29:23.718Z,75.15
2019-03-16T01:30:23.707Z,75.36
2019-03-16T01:31:23.711Z,75.46
2019-03-16T01:32:23.688Z,75.67
2019-03-16T01:33:23.674Z,75.46
2019-03-16T01:34:23.664Z,75.36
2019-03-16T01:35:23.654Z,75.26
2019-03-16T01:36:23.643Z,75.46
2019-03-16T01:37:23.643Z,75.56
2019-03-16T01:38:23.621Z,75.36
2019-03-16T01:39:23.609Z,75.49
2019-03-16T01:40:23.614Z,75.56
2019-03-16T01:41:23.588Z,75.26
2019-03-16T01:42:23.584Z,75.81
2019-03-16T01:43:23.580Z,75.67
2019-03-16T01:44:23.555Z,75.87
2019-03-16T01:45:23.550Z,76.08
2019-03-16T01:46:23.536Z,76.49
2019-03-16T01:47:23.530Z,76.42
2019-03-16T01:48:23.511Z,76.49
2019-03-16T01:49:23.512Z,76.63
2019-03-16T01:50:23.490Z,76.12
2019-03-16T01:51:23.478Z,76.01
2019-03-16T01:52:23.471Z,76.21
2019-03-16T01:53:23.464Z,76.53
2019-03-16T01:54:23.444Z,76.42
2019-03-16T01:55:23.447Z,75.91
2019-03-16T01:56:23.427Z,76.21
2019-03-16T01:57:23.412Z,76.32
2019-03-16T01:58:23.402Z,76.32
2019-03-16T01:59:23.392Z,76.42
2019-03-16T02:00:23.388Z,76.42
2019-03-16T02:01:23.380Z,76.63
2019-03-16T02:02:23.358Z,75.81
2019-03-16T02:03:23.347Z,76.53
2019-03-16T02:04:23.335Z,75.81
2019-03-16T02:05:23.326Z,75.91
2019-03-16T02:06:23.314Z,75.70
2019-03-16T02:07:23.314Z,75.91
2019-03-16T02:08:23.293Z,75.81
2019-03-16T02:09:23.280Z,75.81
2019-03-16T02:10:23.269Z,76.01
2019-03-16T02:11:23.264Z,75.70
2019-03-16T02:12:23.248Z,76.01
2019-03-16T02:13:23.252Z,76.53
2019-03-16T02:14:23.228Z,75.81
2019-03-16T02:15:23.279Z,75.49
2019-03-16T02:16:23.204Z,75.81
2019-03-16T02:17:23.193Z,75.60
2019-03-16T02:18:23.183Z,75.70
2019-03-16T02:19:23.181Z,75.81
2019-03-16T02:20:23.160Z,76.01
2019-03-16T02:21:23.156Z,75.81
2019-03-16T02:22:23.145Z,75.91
2019-03-16T02:23:23.128Z,75.81
2019-03-16T02:24:23.117Z,75.91
2019-03-16T02:25:23.121Z,75.81
2019-03-16T02:26:23.099Z,75.70
2019-03-16T02:27:23.089Z,75.91
2019-03-16T02:28:23.072Z,75.70
2019-03-16T02:29:23.062Z,76.32
2019-03-16T02:30:23.051Z,76.01
2019-03-16T02:31:23.051Z,76.42
2019-03-16T02:32:23.029Z,76.63
2019-03-16T02:33:23.018Z,76.42
2019-03-16T02:34:23.007Z,76.32
2019-03-16T02:35:22.996Z,76.32
2019-03-16T02:36:22.996Z,76.21
2019-03-16T02:37:22.984Z,76.21
2019-03-16T02:38:22.964Z,76.12
2019-03-16T02:39:22.955Z,76.01
2019-03-16T02:40:22.947Z,76.53
2019-03-16T02:41:22.931Z,76.42
2019-03-16T02:42:22.920Z,76.12
2019-03-16T02:43:22.946Z,76.21
2019-03-16T02:44:22.910Z,76.12
2019-03-16T02:45:22.887Z,76.21
2019-03-16T02:46:22.877Z,76.12
2019-03-16T02:47:22.868Z,75.91
2019-03-16T02:48:22.859Z,76.12
2019-03-16T02:49:22.859Z,76.32
2019-03-16T02:50:22.831Z,76.12
2019-03-16T02:51:22.822Z,76.42
2019-03-16T02:52:22.809Z,76.42
2019-03-16T02:53:22.800Z,76.42
2019-03-16T02:54:22.789Z,76.53
2019-03-16T02:55:22.797Z,75.81
2019-03-16T02:56:22.775Z,75.70
2019-03-16T02:57:22.758Z,76.42
2019-03-16T02:58:22.745Z,75.81
2019-03-16T02:59:22.735Z,76.42
2019-03-16T03:00:22.726Z,75.81
2019-03-16T03:01:22.722Z,76.32
2019-03-16T03:02:22.701Z,76.53
2019-03-16T03:03:29.520Z,76.32
2019-03-16T03:04:23.683Z,76.32
2019-03-16T03:05:22.669Z,75.70
2019-03-16T03:06:22.657Z,75.81
2019-03-16T03:07:22.658Z,76.01
2019-03-16T03:08:22.645Z,75.70
2019-03-16T03:09:22.624Z,75.81
2019-03-16T03:10:22.612Z,75.81
2019-03-16T03:11:22.603Z,75.70
2019-03-16T03:12:22.599Z,76.32
2019-03-16T03:13:22.591Z,76.73
2019-03-16T03:14:22.572Z,75.70
2019-03-16T03:15:22.564Z,76.32
2019-03-16T03:16:22.549Z,76.53
2019-03-16T03:17:22.537Z,76.63
2019-03-16T03:18:22.525Z,76.12
2019-03-16T03:19:22.532Z,76.42
2019-03-16T03:20:22.504Z,76.12
2019-03-16T03:21:22.494Z,75.91
2019-03-16T03:22:22.481Z,75.81
2019-03-16T03:23:22.470Z,76.21
2019-03-16T03:24:22.459Z,76.42
2019-03-16T03:25:22.466Z,76.32
2019-03-16T03:26:22.443Z,76.73
2019-03-16T03:27:22.427Z,76.63
2019-03-16T03:28:22.445Z,76.94
2019-03-16T03:29:22.408Z,76.73
2019-03-16T03:30:22.429Z,77.49
2019-03-16T03:31:22.400Z,77.56
2019-03-16T03:32:22.382Z,76.53
2019-03-16T03:33:22.369Z,77.45
2019-03-16T03:34:22.359Z,77.45
2019-03-16T03:35:22.343Z,77.25
2019-03-16T03:36:22.329Z,77.35
2019-03-16T03:37:22.328Z,77.35
2019-03-16T03:38:22.308Z,77.35
2019-03-16T03:39:22.303Z,77.56
2019-03-16T03:40:22.287Z,77.35
2019-03-16T03:41:22.274Z,78.08
2019-03-16T03:42:22.264Z,77.76
2019-03-16T03:43:22.272Z,77.76
2019-03-16T03:44:22.249Z,77.66
2019-03-16T03:45:22.236Z,77.56
2019-03-16T03:46:22.219Z,77.87
2019-03-16T03:47:22.209Z,77.56
2019-03-16T03:48:22.209Z,78.38
2019-03-16T03:49:22.205Z,77.76
2019-03-16T03:50:22.175Z,78.38
2019-03-16T03:51:22.170Z,77.76
2019-03-16T03:52:22.162Z,78.69
2019-03-16T03:53:22.143Z,78.28
2019-03-16T03:54:22.132Z,78.28
2019-03-16T03:55:22.138Z,77.87
2019-03-16T03:56:22.113Z,78.28
2019-03-16T03:57:22.098Z,78.08
2019-03-16T03:58:22.088Z,78.28
2019-03-16T03:59:22.080Z,78.28
2019-03-16T04:00:22.066Z,77.94
2019-03-16T04:01:22.066Z,78.28
2019-03-16T04:02:22.046Z,78.28
2019-03-16T04:03:22.034Z,78.38
2019-03-16T04:04:22.023Z,78.69
2019-03-16T04:05:22.012Z,78.90
2019-03-16T04:06:21.999Z,79.00
2019-03-16T04:07:22.000Z,78.28
2019-03-16T04:08:21.978Z,79.31
2019-03-16T04:09:21.971Z,78.80
2019-03-16T04:10:21.959Z,79.11
2019-03-16T04:11:21.945Z,79.11
2019-03-16T04:12:21.934Z,79.00
2019-03-16T04:13:21.941Z,79.41
2019-03-16T04:14:21.916Z,79.21
2019-03-16T04:15:21.902Z,79.31
2019-03-16T04:16:21.890Z,78.38
2019-03-16T04:17:21.879Z,79.11
2019-03-16T04:18:21.870Z,78.86
2019-03-16T04:19:21.872Z,78.80
2019-03-16T04:20:21.852Z,78.80
2019-03-16T04:21:21.837Z,78.90
2019-03-16T04:22:21.836Z,78.76
2019-03-16T04:23:21.815Z,79.21
2019-03-16T04:24:21.804Z,78.69
2019-03-16T04:25:21.809Z,76.84
2019-03-16T04:26:21.876Z,74.88
2019-03-16T04:27:21.772Z,75.29
2019-03-16T04:28:21.759Z,75.81
2019-03-16T04:29:21.749Z,74.46
2019-03-16T04:30:21.741Z,73.12
2019-03-16T04:31:21.737Z,74.15
2019-03-16T04:32:21.717Z,74.05
2019-03-16T04:33:21.706Z,75.09
2019-03-16T04:34:29.144Z,74.33
2019-03-16T04:35:22.689Z,74.67
2019-03-16T04:36:21.673Z,72.40
2019-03-16T04:37:21.673Z,71.13
2019-03-16T04:38:21.652Z,69.69
2019-03-16T04:39:21.641Z,70.34
2019-03-16T04:40:21.629Z,69.31
2019-03-16T04:41:21.619Z,70.13
2019-03-16T04:42:21.607Z,69.41
2019-03-16T04:43:21.610Z,70.65
2019-03-16T04:44:21.589Z,70.23
2019-03-16T04:45:21.591Z,70.03
2019-03-16T04:46:21.562Z,70.34
2019-03-16T04:47:21.555Z,70.65
2019-03-16T04:48:21.540Z,70.44
2019-03-16T04:49:21.546Z,70.47
2019-03-16T04:50:21.519Z,70.57
2019-03-16T04:51:21.509Z,71.09
2019-03-16T04:52:21.496Z,71.06
2019-03-16T04:53:21.486Z,71.06
2019-03-16T04:54:21.475Z,70.68
2019-03-16T04:55:21.477Z,71.30
2019-03-16T04:56:21.452Z,71.61
2019-03-16T04:57:21.442Z,71.78
2019-03-16T04:58:21.431Z,71.61
2019-03-16T04:59:21.420Z,71.09
2019-03-16T05:00:21.409Z,71.06
2019-03-16T05:01:21.409Z,71.58
2019-03-16T05:02:21.389Z,71.58
2019-03-16T05:03:21.379Z,71.81
2019-03-16T05:04:21.365Z,72.40
2019-03-16T05:05:21.423Z,72.54
2019-03-16T05:06:21.351Z,73.68
2019-03-16T05:07:21.344Z,73.77
2019-03-16T05:08:21.322Z,73.95
2019-03-16T05:09:21.310Z,73.33
2019-03-16T05:10:21.299Z,74.15
2019-03-16T05:11:21.290Z,74.29
2019-03-16T05:12:21.282Z,74.19
2019-03-16T05:13:21.281Z,74.36
2019-03-16T05:14:21.258Z,74.91
2019-03-16T05:15:21.246Z,75.84
2019-03-16T05:16:21.234Z,76.67
2019-03-16T05:17:21.223Z,76.46
2019-03-16T05:18:21.213Z,75.74
2019-03-16T05:19:21.211Z,77.08
2019-03-16T05:20:21.190Z,76.35
2019-03-16T05:21:21.180Z,76.25
2019-03-16T05:22:21.168Z,76.56
2019-03-16T05:23:21.158Z,76.77
2019-03-16T05:24:21.146Z,77.42
2019-03-16T05:25:21.146Z,79.04
2019-03-16T05:26:21.124Z,79.49
2019-03-16T05:27:21.114Z,79.90
2019-03-16T05:28:21.105Z,79.69
2019-03-16T05:29:21.097Z,79.69
2019-03-16T05:30:21.082Z,81.56
2019-03-16T05:31:21.083Z,81.24
2019-03-16T05:32:21.059Z,80.56
2019-03-16T05:33:21.049Z,80.35
2019-03-16T05:34:21.041Z,80.66
2019-03-16T05:35:21.028Z,81.38
2019-03-16T05:36:21.265Z,81.49
2019-03-16T05:37:21.026Z,81.49
2019-03-16T05:38:20.995Z,82.00
2019-03-16T05:39:20.984Z,82.31
2019-03-16T05:40:20.975Z,82.52
2019-03-16T05:41:20.963Z,82.00
2019-03-16T05:42:20.952Z,82.00
2019-03-16T05:43:20.951Z,81.49
2019-03-16T05:44:20.930Z,82.04
2019-03-16T05:45:20.919Z,83.45
2019-03-16T05:46:20.908Z,84.28
2019-03-16T05:47:20.898Z,83.86
2019-03-16T05:48:20.889Z,84.38
2019-03-16T05:49:20.899Z,83.76
2019-03-16T05:50:20.869Z,83.25
2019-03-16T05:51:20.856Z,84.21
2019-03-16T05:52:20.876Z,83.70
2019-03-16T05:53:20.836Z,83.49
2019-03-16T05:54:20.825Z,84.42
2019-03-16T05:55:20.828Z,84.83
2019-03-16T05:56:20.803Z,84.94
2019-03-16T05:57:20.791Z,84.83
2019-03-16T05:58:20.781Z,83.49
2019-03-16T05:59:20.773Z,83.59
2019-03-16T06:00:20.760Z,83.80
2019-03-16T06:01:20.761Z,84.52
2019-03-16T06:02:20.739Z,84.42
2019-03-16T06:03:20.728Z,84.28
2019-03-16T06:04:20.718Z,85.31
2019-03-16T06:05:20.730Z,84.52
2019-03-16T06:06:20.698Z,85.00
2019-03-16T06:07:20.714Z,85.10
2019-03-16T06:08:20.675Z,84.79
2019-03-16T06:09:20.664Z,84.38
2019-03-16T06:10:20.654Z,83.86
2019-03-16T06:11:20.643Z,83.34
2019-03-16T06:12:20.639Z,83.34
2019-03-16T06:13:20.634Z,83.34
2019-03-16T06:14:20.619Z,83.14
2019-03-16T06:15:20.601Z,83.45
2019-03-16T06:16:20.590Z,83.25
2019-03-16T06:17:20.582Z,83.04
2019-03-16T06:18:20.569Z,82.93
2019-03-16T06:19:20.569Z,84.07
2019-03-16T06:20:20.549Z,85.00
2019-03-16T06:21:20.539Z,85.21
2019-03-16T06:22:20.526Z,84.89
2019-03-16T06:23:20.517Z,84.79
2019-03-16T06:24:20.505Z,84.38
2019-03-16T06:25:20.515Z,84.79
2019-03-16T06:26:20.484Z,84.07
2019-03-16T06:27:20.473Z,84.38
2019-03-16T06:28:20.489Z,84.38
2019-03-16T06:29:20.451Z,83.55
2019-03-16T06:30:21.025Z,83.25
2019-03-16T06:31:20.440Z,83.45
2019-03-16T06:32:20.419Z,82.62
2019-03-16T06:33:20.411Z,82.31
2019-03-16T06:34:20.400Z,81.90
2019-03-16T06:35:24.910Z,82.00
2019-03-16T06:36:21.387Z,82.62
2019-03-16T06:37:20.365Z,81.90
2019-03-16T06:38:20.360Z,82.00
2019-03-16T06:39:20.343Z,82.42
2019-03-16T06:40:20.337Z,82.00
2019-03-16T06:41:20.323Z,82.42
2019-03-16T06:42:20.338Z,82.42
2019-03-16T06:43:20.300Z,81.86
2019-03-16T06:44:20.290Z,82.17
2019-03-16T06:45:20.279Z,82.07
2019-03-16T06:46:20.267Z,82.48
2019-03-16T06:47:23.036Z,82.17
2019-03-16T06:48:20.322Z,83.20
2019-03-16T06:49:20.234Z,82.69
2019-03-16T06:50:20.225Z,82.38
2019-03-16T06:51:20.212Z,83.04
2019-03-16T06:52:20.204Z,83.65
2019-03-16T06:53:20.197Z,82.89
2019-03-16T06:54:20.190Z,83.10
2019-03-16T06:55:20.168Z,83.93
2019-03-16T06:56:20.162Z,83.93
2019-03-16T06:57:20.148Z,84.44
2019-03-16T06:58:20.137Z,84.75
2019-03-16T06:59:20.125Z,85.31
2019-03-16T07:00:20.138Z,85.06
2019-03-16T07:01:20.115Z,85.17
2019-03-16T07:02:20.103Z,84.75
2019-03-16T07:03:20.081Z,85.31
2019-03-16T07:04:20.070Z,85.31
2019-03-16T07:05:23.511Z,85.52
2019-03-16T07:06:21.059Z,85.31
2019-03-16T07:07:20.037Z,85.62
2019-03-16T07:08:20.026Z,85.72
2019-03-16T07:09:20.018Z,85.72
2019-03-16T07:10:20.003Z,86.86
2019-03-16T07:11:19.993Z,86.03
2019-03-16T07:12:19.993Z,85.10
2019-03-16T07:13:19.973Z,85.72
2019-03-16T07:14:19.960Z,86.65
2019-03-16T07:15:19.957Z,86.03
2019-03-16T07:16:19.940Z,85.83
2019-03-16T07:17:19.931Z,86.55
2019-03-16T07:18:19.931Z,86.65
2019-03-16T07:19:19.973Z,86.65
2019-03-16T07:20:19.896Z,85.83
2019-03-16T07:21:19.885Z,85.62
2019-03-16T07:22:19.876Z,85.72
2019-03-16T07:23:19.920Z,86.76
2019-03-16T07:24:19.864Z,86.86
2019-03-16T07:25:19.841Z,86.76
2019-03-16T07:26:19.829Z,86.65
2019-03-16T07:27:25.979Z,86.76
2019-03-16T07:28:20.808Z,86.65
2019-03-16T07:29:19.797Z,86.65
2019-03-16T07:30:19.797Z,86.44
2019-03-16T07:31:19.775Z,86.76
2019-03-16T07:32:19.766Z,86.65
2019-03-16T07:33:19.755Z,87.21
2019-03-16T07:34:19.744Z,86.76
2019-03-16T07:35:19.733Z,86.96
2019-03-16T07:36:19.797Z,86.65
2019-03-16T07:37:19.710Z,88.10
2019-03-16T07:38:19.699Z,88.31
2019-03-16T07:39:19.996Z,88.24
2019-03-16T07:40:19.679Z,88.76
2019-03-16T07:41:19.667Z,88.86
2019-03-16T07:42:19.675Z,89.17
2019-03-16T07:43:19.669Z,89.48
2019-03-16T07:44:19.637Z,89.59
2019-03-16T07:45:19.626Z,89.69
2019-03-16T07:46:19.624Z,89.86
2019-03-16T07:47:19.604Z,89.59
2019-03-16T07:48:19.605Z,89.69
2019-03-16T07:49:19.582Z,90.93
2019-03-16T07:50:19.572Z,90.62
2019-03-16T07:51:19.561Z,90.10
2019-03-16T07:52:19.551Z,90.62
2019-03-16T07:53:19.539Z,90.83
2019-03-16T07:54:19.539Z,90.83
2019-03-16T07:55:19.520Z,92.17
2019-03-16T07:56:19.508Z,92.33
2019-03-16T07:57:19.498Z,91.75
2019-03-16T07:58:19.486Z,92.07
2019-03-16T07:59:19.475Z,91.86
2019-03-16T08:00:19.476Z,92.17
2019-03-16T08:01:19.456Z,92.38
2019-03-16T08:02:19.446Z,92.44
2019-03-16T08:03:19.435Z,92.02
2019-03-16T08:04:19.424Z,92.79
2019-03-16T08:05:19.569Z,92.48
2019-03-16T08:06:19.411Z,92.44
2019-03-16T08:07:19.394Z,93.05
2019-03-16T08:08:19.381Z,93.47
2019-03-16T08:09:19.399Z,93.47
2019-03-16T08:10:19.357Z,93.62
2019-03-16T08:11:19.345Z,93.20
2019-03-16T08:12:19.348Z,93.68
2019-03-16T08:13:19.326Z,93.51
2019-03-16T08:14:19.314Z,93.26
2019-03-16T08:15:19.306Z,93.47
2019-03-16T08:16:19.293Z,93.78
2019-03-16T08:17:19.281Z,94.19
2019-03-16T08:18:19.282Z,94.03
2019-03-16T08:19:19.260Z,94.40
2019-03-16T08:20:19.248Z,94.19
2019-03-16T08:21:19.237Z,95.02
2019-03-16T08:22:19.227Z,95.12
2019-03-16T08:23:19.216Z,94.71
2019-03-16T08:24:19.216Z,94.60
2019-03-16T08:25:19.195Z,94.71
2019-03-16T08:26:19.186Z,94.81
2019-03-16T08:27:19.173Z,95.27
2019-03-16T08:28:19.164Z,95.32
2019-03-16T08:29:19.160Z,95.22
2019-03-16T08:30:19.151Z,95.43
2019-03-16T08:31:19.133Z,95.64
2019-03-16T08:32:19.119Z,96.05
2019-03-16T08:33:19.110Z,95.95
2019-03-16T08:34:19.098Z,96.36
2019-03-16T08:35:19.089Z,95.84
2019-03-16T08:36:19.088Z,96.36
2019-03-16T08:37:19.066Z,96.67
2019-03-16T08:38:19.055Z,96.88
2019-03-16T08:39:19.043Z,97.39
2019-03-16T08:40:19.043Z,97.08
2019-03-16T08:41:19.021Z,96.88
2019-03-16T08:42:19.034Z,97.29
2019-03-16T08:43:19.001Z,97.19
2019-03-16T08:44:18.989Z,97.08
2019-03-16T08:45:18.980Z,97.71
2019-03-16T08:46:18.966Z,97.71
2019-03-16T08:47:18.955Z,97.81
2019-03-16T08:48:23.137Z,97.81
2019-03-16T08:49:18.935Z,97.81
2019-03-16T08:50:18.924Z,98.11
2019-03-16T08:51:18.916Z,98.07
2019-03-16T08:52:18.902Z,98.28
2019-03-16T08:53:18.910Z,97.76
2019-03-16T08:54:18.898Z,98.38
2019-03-16T08:55:18.869Z,98.28
2019-03-16T08:56:18.869Z,97.76
2019-03-16T08:57:18.848Z,98.58
2019-03-16T08:58:18.836Z,98.49
2019-03-16T08:59:18.825Z,98.33
2019-03-16T09:00:18.829Z,98.85
2019-03-16T09:01:18.805Z,98.85
2019-03-16T09:02:18.797Z,98.70
2019-03-16T09:03:18.782Z,98.85
2019-03-16T09:04:18.770Z,98.60
2019-03-16T09:05:18.769Z,98.60
2019-03-16T09:06:18.765Z,98.39
2019-03-16T09:07:18.738Z,98.50
2019-03-16T09:08:18.726Z,98.35
2019-03-16T09:09:18.715Z,98.39
2019-03-16T09:10:18.704Z,98.55
2019-03-16T09:11:18.695Z,98.45
2019-03-16T09:12:18.692Z,98.66
2019-03-16T09:13:18.682Z,98.14
2019-03-16T09:14:18.662Z,98.45
2019-03-16T09:15:18.649Z,98.10
2019-03-16T09:16:18.639Z,98.10
2019-03-16T09:17:18.628Z,98.41
2019-03-16T09:18:18.628Z,98.30
2019-03-16T09:19:18.613Z,97.99
2019-03-16T09:20:18.599Z,97.64
2019-03-16T09:21:18.586Z,97.85
2019-03-16T09:22:18.577Z,98.05
2019-03-16T09:23:18.564Z,98.05
2019-03-16T09:24:18.577Z,97.53
2019-03-16T09:25:18.616Z,97.69
2019-03-16T09:26:18.532Z,97.90
2019-03-16T09:27:30.331Z,98.21
2019-03-16T09:28:19.514Z,97.60
2019-03-16T09:29:18.500Z,98.32
2019-03-16T09:30:18.503Z,98.00
2019-03-16T09:31:18.478Z,98.27
2019-03-16T09:32:18.468Z,97.96
2019-03-16T09:33:18.541Z,97.96
2019-03-16T09:34:18.446Z,98.12
2019-03-16T09:35:18.435Z,97.75
2019-03-16T09:36:18.447Z,97.71
2019-03-16T09:37:18.419Z,96.84
2019-03-16T09:38:18.402Z,97.19
2019-03-16T09:39:18.393Z,97.15
2019-03-16T09:40:18.380Z,97.25
2019-03-16T09:41:18.373Z,97.25
2019-03-16T09:42:18.374Z,97.15
2019-03-16T09:43:18.347Z,97.15
2019-03-16T09:44:18.399Z,97.15
2019-03-16T09:45:18.325Z,97.15
2019-03-16T09:46:18.314Z,97.15
2019-03-16T09:47:18.304Z,96.90
2019-03-16T09:48:18.315Z,97.31
2019-03-16T09:49:18.282Z,97.00
2019-03-16T09:50:18.272Z,96.90
2019-03-16T09:51:18.261Z,96.59
2019-03-16T09:52:18.251Z,96.14
2019-03-16T09:53:18.240Z,96.75
2019-03-16T09:54:18.254Z,95.89
2019-03-16T09:55:18.220Z,96.30
2019-03-16T09:56:18.208Z,95.57
2019-03-16T09:57:18.203Z,95.06
2019-03-16T09:58:30.480Z,95.57
2019-03-16T09:59:19.189Z,95.17
2019-03-16T10:00:18.167Z,95.17
2019-03-16T10:01:18.156Z,95.02
2019-03-16T10:02:18.143Z,94.81
2019-03-16T10:03:18.133Z,94.81
2019-03-16T10:04:18.121Z,94.92
2019-03-16T10:05:18.125Z,95.23
2019-03-16T10:06:18.100Z,94.71
2019-03-16T10:07:18.089Z,94.36
2019-03-16T10:08:19.328Z,94.67
2019-03-16T10:09:18.067Z,94.67
2019-03-16T10:10:18.057Z,94.56
2019-03-16T10:11:18.062Z,94.26
2019-03-16T10:12:18.045Z,94.05
2019-03-16T10:13:18.043Z,94.05
2019-03-16T10:14:18.013Z,94.15
2019-03-16T10:15:18.003Z,94.46
2019-03-16T10:16:17.995Z,94.05
2019-03-16T10:17:17.991Z,94.67
2019-03-16T10:18:17.970Z,94.36
2019-03-16T10:19:17.958Z,94.56
2019-03-16T10:20:17.947Z,94.15
2019-03-16T10:21:18.948Z,94.15
2019-03-16T10:22:17.927Z,94.26
2019-03-16T10:23:17.930Z,94.15
2019-03-16T10:24:17.904Z,94.15
2019-03-16T10:25:17.892Z,94.05
2019-03-16T10:26:17.881Z,94.15
2019-03-16T10:27:17.870Z,94.05
2019-03-16T10:28:17.859Z,94.77
2019-03-16T10:29:17.877Z,94.05
2019-03-16T10:30:17.837Z,94.36
2019-03-16T10:31:17.826Z,94.36
2019-03-16T10:32:17.817Z,93.54
2019-03-16T10:33:17.810Z,93.23
2019-03-16T10:34:17.796Z,93.08
2019-03-16T10:35:17.794Z,92.93
2019-03-16T10:36:17.770Z,92.93
2019-03-16T10:37:17.759Z,92.61
2019-03-16T10:38:17.749Z,93.13
2019-03-16T10:39:17.738Z,92.41
2019-03-16T10:40:17.726Z,92.88
2019-03-16T10:41:17.728Z,92.78
2019-03-16T10:42:17.706Z,92.93
2019-03-16T10:43:17.695Z,93.64
2019-03-16T10:44:17.682Z,93.39
2019-03-16T10:45:17.675Z,93.39
2019-03-16T10:46:17.661Z,94.46
2019-03-16T10:47:17.661Z,94.36
2019-03-16T10:48:17.639Z,94.36
2019-03-16T10:49:17.627Z,94.05
2019-03-16T10:50:17.616Z,94.15
2019-03-16T10:51:17.606Z,94.46
2019-03-16T10:52:17.594Z,94.77
2019-03-16T10:53:17.598Z,94.98
2019-03-16T10:54:17.572Z,94.87
2019-03-16T10:55:17.562Z,94.98
2019-03-16T10:56:17.556Z,94.87
2019-03-16T10:57:17.542Z,95.39
2019-03-16T10:58:17.555Z,95.23
2019-03-16T10:59:17.752Z,94.77
2019-03-16T11:00:17.512Z,95.32
2019-03-16T11:01:17.495Z,95.74
2019-03-16T11:02:17.486Z,95.79
2019-03-16T11:03:17.475Z,95.74
2019-03-16T11:04:17.466Z,95.43
2019-03-16T11:05:17.464Z,95.64
2019-03-16T11:06:17.440Z,96.15
2019-03-16T11:07:17.428Z,95.74
2019-03-16T11:08:17.418Z,95.94
2019-03-16T11:09:17.408Z,95.74
2019-03-16T11:10:17.406Z,95.43
2019-03-16T11:11:17.395Z,95.23
2019-03-16T11:12:17.375Z,95.53
2019-03-16T11:13:17.363Z,95.53
2019-03-16T11:14:17.352Z,95.49
2019-03-16T11:15:17.340Z,94.77
2019-03-16T11:16:17.343Z,94.67
2019-03-16T11:17:17.332Z,94.71
2019-03-16T11:18:17.307Z,94.56
2019-03-16T11:19:17.336Z,94.26
2019-03-16T11:20:17.294Z,94.26
2019-03-16T11:21:17.277Z,94.56
2019-03-16T11:22:17.263Z,94.32
2019-03-16T11:23:17.270Z,94.01
2019-03-16T11:24:17.243Z,94.21
2019-03-16T11:25:17.230Z,93.25
2019-03-16T11:26:17.220Z,93.04
2019-03-16T11:27:17.488Z,91.71
2019-03-16T11:28:17.200Z,91.50
2019-03-16T11:29:17.204Z,91.82
2019-03-16T11:30:17.179Z,91.71
2019-03-16T11:31:17.170Z,91.61
2019-03-16T11:32:17.156Z,91.71
2019-03-16T11:33:17.144Z,91.86
2019-03-16T11:34:17.137Z,91.65
2019-03-16T11:35:17.146Z,91.35
2019-03-16T11:36:17.112Z,90.93
2019-03-16T11:37:17.105Z,91.86
2019-03-16T11:38:17.091Z,91.03
2019-03-16T11:39:17.080Z,90.42
2019-03-16T11:40:17.129Z,90.07
2019-03-16T11:41:17.071Z,90.62
2019-03-16T11:42:17.142Z,88.88
2019-03-16T11:43:17.037Z,88.84
2019-03-16T11:44:17.029Z,88.84
2019-03-16T11:45:17.628Z,89.15
2019-03-16T11:46:17.006Z,88.74
2019-03-16T11:47:17.014Z,89.04
2019-03-16T11:48:16.985Z,88.53
2019-03-16T11:49:16.987Z,88.94
2019-03-16T11:50:16.976Z,88.53
2019-03-16T11:51:16.954Z,88.43
2019-03-16T11:52:16.940Z,89.15
2019-03-16T11:53:16.948Z,88.74
2019-03-16T11:54:16.920Z,88.53
2019-03-16T11:55:16.908Z,88.02
2019-03-16T11:56:18.385Z,88.08
2019-03-16T11:57:16.891Z,88.02
2019-03-16T11:58:16.878Z,87.47
2019-03-16T11:59:21.433Z,87.82
2019-03-16T12:00:17.862Z,88.33
2019-03-16T12:01:16.844Z,87.92
2019-03-16T12:02:16.834Z,87.51
2019-03-16T12:03:16.823Z,87.37
2019-03-16T12:04:16.814Z,87.41
2019-03-16T12:05:16.822Z,86.69
2019-03-16T12:06:16.791Z,86.65
2019-03-16T12:07:16.780Z,86.75
2019-03-16T12:08:16.769Z,86.75
2019-03-16T12:09:16.763Z,85.31
2019-03-16T12:10:16.750Z,86.14
2019-03-16T12:11:16.756Z,86.04
2019-03-16T12:12:16.731Z,86.65
2019-03-16T12:13:18.834Z,86.55
2019-03-16T12:14:16.705Z,86.85
2019-03-16T12:15:16.698Z,86.65
2019-03-16T12:16:16.691Z,86.55
2019-03-16T12:17:16.682Z,86.04
2019-03-16T12:18:16.662Z,85.22
2019-03-16T12:19:16.653Z,85.93
2019-03-16T12:20:18.354Z,86.14
2019-03-16T12:21:16.631Z,85.93
2019-03-16T12:22:16.656Z,85.31
2019-03-16T12:23:16.619Z,84.91
2019-03-16T12:24:16.598Z,85.11
2019-03-16T12:25:16.590Z,85.31
2019-03-16T12:26:16.577Z,84.80
2019-03-16T12:27:16.566Z,84.80
2019-03-16T12:28:16.555Z,84.60
2019-03-16T12:29:16.556Z,84.60
2019-03-16T12:30:16.543Z,84.80
2019-03-16T12:31:16.526Z,85.11
2019-03-16T12:32:16.539Z,86.04
2019-03-16T12:33:16.511Z,85.31
2019-03-16T12:34:16.494Z,84.39
2019-03-16T12:35:16.493Z,84.39
2019-03-16T12:36:16.472Z,84.19
2019-03-16T12:37:16.460Z,83.98
2019-03-16T12:38:16.448Z,84.19
2019-03-16T12:39:16.439Z,84.05
2019-03-16T12:40:16.432Z,84.36
2019-03-16T12:41:16.425Z,84.29
2019-03-16T12:42:16.410Z,84.50
2019-03-16T12:43:16.399Z,84.60
2019-03-16T12:44:16.386Z,84.80
2019-03-16T12:45:16.373Z,84.91
2019-03-16T12:46:16.365Z,84.80
2019-03-16T12:47:16.365Z,85.01
2019-03-16T12:48:16.343Z,84.39
2019-03-16T12:49:16.335Z,85.01
2019-03-16T12:50:16.320Z,84.50
2019-03-16T12:51:16.320Z,84.70
2019-03-16T12:52:16.313Z,84.50